createdAt,value
2023-01-17T00:01:13.056Z,4.70
2023-01-17T00:03:58.373Z,5.60
2023-01-17T00:06:44.144Z,4.10
2023-01-17T00:09:30.545Z,5.60
2023-01-17T00:11:57.604Z,6.50
2023-01-17T00:14:24.199Z,5.70
2023-01-17T00:16:50.847Z,5.60
2023-01-17T00:19:36.335Z,6.10
2023-01-17T00:22:29.206Z,5.00
2023-01-17T00:25:14.745Z,4.00
2023-01-17T00:27:41.284Z,4.80
2023-01-17T00:30:08.964Z,4.90
2023-01-17T00:32:35.554Z,4.00
2023-01-17T00:35:02.110Z,4.50
2023-01-17T00:37:28.702Z,4.50
2023-01-17T00:39:55.332Z,3.40
2023-01-17T00:42:21.870Z,6.60
2023-01-17T00:45:07.058Z,4.10
2023-01-17T00:47:53.190Z,4.40
2023-01-17T00:50:38.359Z,4.00
2023-01-17T00:53:24.069Z,4.30
2023-01-17T00:56:10.169Z,4.10
2023-01-17T00:58:55.348Z,3.00
2023-01-17T01:01:41.153Z,4.00
2023-01-17T01:04:26.447Z,3.20
2023-01-17T01:07:11.670Z,4.00
2023-01-17T01:09:57.131Z,4.00
2023-01-17T01:12:42.623Z,8.00
2023-01-17T01:15:28.460Z,6.90
2023-01-17T01:18:13.915Z,11.50
2023-01-17T01:20:59.337Z,9.70
2023-01-17T01:23:44.572Z,5.80
2023-01-17T01:26:29.845Z,7.90
2023-01-17T01:29:15.036Z,9.10
2023-01-17T01:32:00.489Z,7.40
2023-01-17T01:34:27.092Z,9.70
2023-01-17T01:36:53.706Z,8.60
2023-01-17T01:39:20.486Z,7.50
2023-01-17T01:41:47.063Z,5.90
2023-01-17T01:44:32.802Z,5.80
2023-01-17T01:46:59.351Z,7.40
2023-01-17T01:49:28.486Z,6.70
2023-01-17T01:51:57.117Z,5.90
2023-01-17T01:54:26.110Z,6.20
2023-01-17T01:56:54.594Z,5.80
2023-01-17T01:59:22.258Z,5.50
2023-01-17T02:01:50.409Z,5.60
2023-01-17T02:04:18.000Z,6.90
2023-01-17T02:06:55.953Z,7.40
2023-01-17T02:09:23.406Z,11.20
2023-01-17T02:11:50.244Z,11.60
2023-01-17T02:14:17.906Z,15.30
2023-01-17T02:16:57.577Z,11.40
2023-01-17T02:19:33.464Z,11.80
2023-01-17T02:22:14.035Z,9.20
2023-01-17T02:24:51.975Z,8.30
2023-01-17T02:27:26.403Z,10.60
2023-01-17T02:29:53.035Z,11.60
2023-01-17T02:32:19.649Z,11.00
2023-01-17T02:34:51.376Z,10.60
2023-01-17T02:37:23.347Z,11.20
2023-01-17T02:39:56.154Z,11.60
2023-01-17T02:42:26.853Z,9.60
2023-01-17T02:44:53.691Z,10.80
2023-01-17T02:47:20.329Z,18.00
2023-01-17T02:49:47.058Z,12.90
2023-01-17T02:52:13.753Z,15.20
2023-01-17T02:55:01.277Z,12.80
2023-01-17T02:57:37.098Z,11.70
2023-01-17T03:00:10.169Z,11.20
2023-01-17T03:02:59.141Z,11.00
2023-01-17T03:05:25.776Z,11.60
2023-01-17T03:07:53.951Z,14.30
2023-01-17T03:10:21.131Z,14.70
2023-01-17T03:12:47.899Z,12.20
2023-01-17T03:15:17.615Z,10.80
2023-01-17T03:17:47.767Z,11.70
2023-01-17T03:20:14.453Z,9.40
2023-01-17T03:22:41.075Z,14.10
2023-01-17T03:25:07.924Z,8.80
2023-01-17T03:27:34.585Z,10.50
2023-01-17T03:30:02.141Z,9.70
2023-01-17T03:32:28.728Z,9.90
2023-01-17T03:34:55.786Z,10.70
2023-01-17T03:37:22.425Z,9.70
2023-01-17T03:39:49.048Z,13.20
2023-01-17T03:42:15.634Z,11.00
2023-01-17T03:44:42.222Z,12.90
2023-01-17T03:47:12.433Z,11.40
2023-01-17T03:49:39.857Z,9.70
2023-01-17T03:52:07.101Z,12.10
2023-01-17T03:54:33.809Z,16.10
2023-01-17T03:57:00.427Z,14.30
2023-01-17T03:59:27.035Z,16.10
2023-01-17T04:01:53.621Z,22.10
2023-01-17T04:04:20.208Z,17.80
2023-01-17T04:06:48.197Z,16.60
2023-01-17T04:09:14.882Z,11.70
2023-01-17T04:11:41.521Z,12.40
2023-01-17T04:14:08.120Z,11.80
2023-01-17T04:16:34.861Z,15.50
2023-01-17T04:19:01.802Z,23.00
2023-01-17T04:21:28.413Z,14.20
2023-01-17T04:23:55.062Z,17.30
2023-01-17T04:26:21.607Z,24.20
2023-01-17T04:28:48.562Z,19.50
2023-01-17T04:31:16.482Z,23.50
2023-01-17T04:33:43.271Z,32.50
2023-01-17T04:36:09.829Z,43.30
2023-01-17T04:38:36.430Z,28.20
2023-01-17T04:41:03.080Z,14.40
2023-01-17T04:43:29.631Z,12.70
2023-01-17T04:45:56.801Z,12.20
2023-01-17T04:48:24.297Z,9.80
2023-01-17T04:50:50.885Z,9.80
2023-01-17T04:53:17.487Z,14.50
2023-01-17T04:55:47.174Z,11.80
2023-01-17T04:58:13.733Z,11.70
2023-01-17T05:00:40.334Z,11.80
2023-01-17T05:03:07.458Z,10.60
2023-01-17T05:05:34.101Z,10.80
2023-01-17T05:08:00.723Z,25.50
2023-01-17T05:10:27.362Z,17.40
2023-01-17T05:12:54.666Z,27.40
2023-01-17T05:15:21.405Z,21.30
2023-01-17T05:17:47.986Z,10.00
2023-01-17T05:20:14.606Z,10.70
2023-01-17T05:22:41.249Z,9.40
2023-01-17T05:25:07.992Z,7.30
2023-01-17T05:27:34.723Z,6.80
2023-01-17T05:30:01.357Z,7.70
2023-01-17T05:32:28.415Z,6.10
2023-01-17T05:34:55.103Z,7.90
2023-01-17T05:37:21.712Z,11.10
2023-01-17T05:39:48.321Z,6.80
2023-01-17T05:42:14.926Z,10.20
2023-01-17T05:44:41.536Z,15.60
2023-01-17T05:47:08.093Z,15.70
2023-01-17T05:49:34.823Z,15.50
2023-01-17T05:52:02.267Z,17.20
2023-01-17T05:54:28.922Z,15.80
2023-01-17T05:56:55.553Z,18.60
2023-01-17T05:59:32.365Z,16.80
2023-01-17T06:02:02.896Z,18.40
2023-01-17T06:04:29.510Z,16.70
2023-01-17T06:06:56.129Z,20.10
2023-01-17T06:09:22.689Z,19.80
2023-01-17T06:11:49.319Z,16.30
2023-01-17T06:14:15.941Z,25.60
2023-01-17T06:16:42.598Z,20.20
2023-01-17T06:19:09.836Z,25.40
2023-01-17T06:21:36.457Z,22.90
2023-01-17T06:24:04.291Z,21.50
2023-01-17T06:26:31.157Z,22.70
2023-01-17T06:28:57.763Z,18.20
2023-01-17T06:31:24.471Z,27.20
2023-01-17T06:33:51.096Z,19.20
2023-01-17T06:36:17.697Z,22.50
2023-01-17T06:38:44.347Z,25.70
2023-01-17T06:41:10.989Z,27.40
2023-01-17T06:43:37.684Z,26.60
2023-01-17T06:46:04.524Z,23.40
2023-01-17T06:48:31.666Z,35.90
2023-01-17T06:50:59.000Z,26.10
2023-01-17T06:53:25.687Z,19.40
2023-01-17T06:55:55.499Z,26.60
2023-01-17T06:58:22.663Z,39.90
2023-01-17T07:00:49.681Z,37.50
2023-01-17T07:03:20.041Z,31.10
2023-01-17T07:05:46.904Z,35.90
2023-01-17T07:08:13.898Z,27.00
2023-01-17T07:10:40.539Z,38.70
2023-01-17T07:13:07.216Z,45.80
2023-01-17T07:15:33.923Z,47.30
2023-01-17T07:18:01.294Z,38.30
2023-01-17T07:20:28.040Z,27.60
2023-01-17T07:22:55.375Z,28.50
2023-01-17T07:25:22.032Z,38.80
2023-01-17T07:27:48.686Z,42.00
2023-01-17T07:30:15.489Z,33.70
2023-01-17T07:32:42.200Z,45.60
2023-01-17T07:35:09.042Z,118.30
2023-01-17T07:37:35.791Z,36.80
2023-01-17T07:40:03.176Z,90.00
2023-01-17T07:42:29.872Z,47.90
2023-01-17T07:44:56.502Z,28.40
2023-01-17T07:47:24.965Z,35.00
2023-01-17T07:49:51.591Z,28.50
2023-01-17T07:52:18.397Z,41.40
2023-01-17T07:54:45.215Z,50.80
2023-01-17T07:57:12.692Z,28.90
2023-01-17T07:59:39.318Z,26.60
2023-01-17T08:02:06.157Z,27.20
2023-01-17T08:04:35.310Z,33.00
2023-01-17T08:07:02.109Z,38.20
2023-01-17T08:09:28.859Z,46.00
2023-01-17T08:11:55.486Z,61.30
2023-01-17T08:14:22.054Z,55.60
2023-01-17T08:16:48.682Z,46.80
2023-01-17T08:19:15.291Z,54.50
2023-01-17T08:21:41.886Z,53.60
2023-01-17T08:24:14.676Z,36.20
2023-01-17T08:26:41.270Z,52.80
2023-01-17T08:29:07.974Z,38.30
2023-01-17T08:31:35.039Z,36.60
2023-01-17T08:34:01.922Z,41.10
2023-01-17T08:36:29.112Z,32.20
2023-01-17T08:38:55.780Z,30.60
2023-01-17T08:41:23.189Z,44.20
2023-01-17T08:43:50.806Z,33.50
2023-01-17T08:46:17.894Z,56.40
2023-01-17T08:48:44.876Z,32.10
2023-01-17T08:51:11.860Z,34.80
2023-01-17T08:53:38.573Z,39.80
2023-01-17T08:56:05.729Z,52.40
2023-01-17T08:58:32.932Z,36.10
2023-01-17T09:01:03.732Z,36.10
2023-01-17T09:03:31.121Z,24.70
2023-01-17T09:06:02.080Z,41.10
2023-01-17T09:08:28.694Z,36.20
2023-01-17T09:10:55.313Z,19.60
2023-01-17T09:13:21.958Z,21.10
2023-01-17T09:15:48.650Z,19.80
2023-01-17T09:18:15.223Z,20.10
2023-01-17T09:20:42.395Z,21.60
2023-01-17T09:23:09.192Z,21.40
2023-01-17T09:25:35.719Z,19.60
2023-01-17T09:28:02.345Z,21.60
2023-01-17T09:30:29.024Z,21.50
2023-01-17T09:32:55.741Z,21.10
2023-01-17T09:35:22.331Z,30.90
2023-01-17T09:37:50.441Z,36.10
2023-01-17T09:40:22.962Z,54.60
2023-01-17T09:42:55.506Z,36.30
2023-01-17T09:45:22.195Z,24.90
2023-01-17T09:47:53.299Z,24.80
2023-01-17T09:50:58.632Z,30.00
2023-01-17T09:53:25.686Z,30.30
2023-01-17T09:55:58.392Z,22.30
2023-01-17T09:58:43.680Z,26.90
2023-01-17T10:01:22.852Z,28.90
2023-01-17T10:03:55.790Z,23.70
2023-01-17T10:06:30.476Z,23.90
2023-01-17T10:09:00.213Z,25.10
2023-01-17T10:11:34.843Z,22.30
2023-01-17T10:14:16.899Z,22.90
2023-01-17T10:16:53.988Z,21.40
2023-01-17T10:19:20.661Z,26.40
2023-01-17T10:22:07.909Z,18.80
2023-01-17T10:24:34.457Z,20.50
2023-01-17T10:27:02.299Z,17.40
2023-01-17T10:29:31.864Z,21.50
2023-01-17T10:32:02.178Z,24.30
2023-01-17T10:34:55.244Z,27.40
2023-01-17T10:37:37.882Z,24.30
2023-01-17T10:40:14.096Z,21.30
2023-01-17T10:42:50.826Z,22.50
2023-01-17T10:45:29.351Z,24.10
2023-01-17T10:48:19.006Z,21.60
2023-01-17T10:51:07.933Z,27.20
2023-01-17T10:53:48.596Z,21.60
2023-01-17T10:56:15.928Z,24.40
2023-01-17T10:58:42.484Z,20.40
2023-01-17T11:01:17.077Z,23.30
2023-01-17T11:03:45.718Z,23.90
2023-01-17T11:06:23.172Z,22.80
2023-01-17T11:08:51.378Z,20.00
2023-01-17T11:11:18.732Z,20.80
2023-01-17T11:13:47.824Z,20.50
2023-01-17T11:16:26.702Z,25.00
2023-01-17T11:19:09.182Z,25.40
2023-01-17T11:21:37.562Z,22.90
2023-01-17T11:24:12.358Z,19.70
2023-01-17T11:26:47.258Z,21.10
2023-01-17T11:29:16.398Z,26.70
2023-01-17T11:31:43.739Z,22.10
2023-01-17T11:34:13.385Z,29.00
2023-01-17T11:36:39.957Z,28.80
2023-01-17T11:39:21.492Z,17.30
2023-01-17T11:41:48.516Z,19.20
2023-01-17T11:44:29.556Z,21.50
2023-01-17T11:47:08.979Z,16.70
2023-01-17T11:49:35.631Z,19.70
2023-01-17T11:52:08.243Z,17.50
2023-01-17T11:54:39.739Z,28.00
2023-01-17T11:57:07.667Z,57.20
2023-01-17T11:59:38.453Z,23.20
2023-01-17T12:02:21.459Z,18.90
2023-01-17T12:04:53.050Z,17.40
2023-01-17T12:07:40.791Z,17.60
2023-01-17T12:10:19.354Z,12.20
2023-01-17T12:13:10.464Z,18.00
2023-01-17T12:15:55.588Z,19.10
2023-01-17T12:18:30.610Z,13.80
2023-01-17T12:21:16.765Z,20.50
2023-01-17T12:23:58.951Z,18.40
2023-01-17T12:26:34.521Z,17.00
2023-01-17T12:29:11.766Z,15.90
2023-01-17T12:31:46.426Z,27.00
2023-01-17T12:34:36.037Z,21.30
2023-01-17T12:37:07.162Z,22.30
2023-01-17T12:39:38.986Z,19.90
2023-01-17T12:42:18.914Z,19.00
2023-01-17T12:45:04.550Z,17.50
2023-01-17T12:47:33.603Z,14.40
2023-01-17T12:50:18.982Z,27.50
2023-01-17T12:52:50.711Z,35.60
2023-01-17T12:55:20.524Z,25.70
2023-01-17T12:57:54.402Z,19.70
2023-01-17T13:00:23.058Z,18.10
2023-01-17T13:02:55.821Z,20.00
2023-01-17T13:05:24.057Z,17.20
2023-01-17T13:08:03.241Z,19.00
2023-01-17T13:10:41.416Z,23.30
2023-01-17T13:13:24.278Z,16.20
2023-01-17T13:16:09.596Z,13.60
2023-01-17T13:18:39.314Z,23.80
2023-01-17T13:21:08.909Z,22.90
2023-01-17T13:23:56.516Z,19.60
2023-01-17T13:26:23.074Z,19.40
2023-01-17T13:28:57.813Z,18.20
2023-01-17T13:31:36.876Z,18.00
2023-01-17T13:34:18.952Z,15.60
2023-01-17T13:37:04.952Z,16.90
2023-01-17T13:39:37.664Z,16.00
2023-01-17T13:42:12.943Z,19.70
2023-01-17T13:44:39.633Z,20.30
2023-01-17T13:47:27.313Z,19.20
2023-01-17T13:49:57.536Z,20.50
2023-01-17T13:52:24.120Z,16.70
2023-01-17T13:54:50.675Z,20.20
2023-01-17T13:57:23.609Z,17.80
2023-01-17T13:59:50.331Z,16.40
2023-01-17T14:02:32.403Z,17.40
2023-01-17T14:05:23.396Z,16.40
2023-01-17T14:08:03.868Z,17.50
2023-01-17T14:10:34.312Z,20.70
2023-01-17T14:13:01.359Z,20.20
2023-01-17T14:15:28.824Z,17.60
2023-01-17T14:18:03.770Z,22.10
2023-01-17T14:20:37.848Z,23.20
2023-01-17T14:23:21.230Z,22.90
2023-01-17T14:25:47.871Z,19.10
2023-01-17T14:28:22.916Z,17.70
2023-01-17T14:30:54.493Z,21.10
2023-01-17T14:33:25.550Z,15.80
2023-01-17T14:35:53.214Z,12.90
2023-01-17T14:38:24.429Z,22.20
2023-01-17T14:40:55.810Z,25.80
2023-01-17T14:43:23.808Z,15.60
2023-01-17T14:45:56.562Z,14.30
2023-01-17T14:48:23.420Z,14.80
2023-01-17T14:50:51.183Z,11.40
2023-01-17T14:53:20.235Z,15.00
2023-01-17T14:55:51.219Z,11.90
2023-01-17T14:58:22.232Z,8.50
2023-01-17T15:00:50.429Z,8.40
2023-01-17T15:03:17.422Z,10.60
2023-01-17T15:05:45.995Z,9.70
2023-01-17T15:08:14.064Z,7.40
2023-01-17T15:10:56.169Z,8.60
2023-01-17T15:13:38.789Z,9.30
2023-01-17T15:16:24.713Z,7.40
2023-01-17T15:18:52.416Z,13.10
2023-01-17T15:21:21.156Z,5.70
2023-01-17T15:23:58.231Z,6.70
2023-01-17T15:26:26.284Z,4.10
2023-01-17T15:28:53.728Z,5.60
2023-01-17T15:31:40.560Z,8.40
2023-01-17T15:34:08.335Z,10.40
2023-01-17T15:36:35.666Z,11.80
2023-01-17T15:39:03.859Z,12.60
2023-01-17T15:41:34.535Z,12.20
2023-01-17T15:44:01.877Z,12.50
2023-01-17T15:46:31.043Z,12.60
2023-01-17T15:49:17.607Z,11.80
2023-01-17T15:51:55.381Z,10.40
2023-01-17T15:54:40.343Z,15.90
2023-01-17T15:57:24.529Z,40.30
2023-01-17T15:59:51.087Z,17.50
2023-01-17T16:02:36.617Z,21.20
2023-01-17T16:05:23.761Z,10.90
2023-01-17T16:07:51.948Z,10.30
2023-01-17T16:10:20.280Z,14.30
2023-01-17T16:12:47.836Z,13.50
2023-01-17T16:15:16.926Z,10.50
2023-01-17T16:17:46.390Z,6.20
2023-01-17T16:20:30.730Z,6.20
2023-01-17T16:22:57.343Z,5.30
2023-01-17T16:25:24.903Z,5.10
2023-01-17T16:27:52.917Z,4.20
2023-01-17T16:30:21.983Z,5.10
2023-01-17T16:32:49.213Z,5.00
2023-01-17T16:35:21.603Z,5.30
2023-01-17T16:37:53.058Z,5.70
2023-01-17T16:40:21.221Z,5.70
2023-01-17T16:42:48.338Z,5.00
2023-01-17T16:45:15.717Z,4.80
2023-01-17T16:47:42.975Z,2.50
2023-01-17T16:50:11.341Z,2.10
2023-01-17T16:52:38.297Z,2.50
2023-01-17T16:55:05.818Z,2.50
2023-01-17T16:57:32.847Z,2.30
2023-01-17T16:59:59.816Z,1.70
2023-01-17T17:02:26.538Z,2.20
2023-01-17T17:04:55.691Z,1.70
2023-01-17T17:07:22.337Z,2.30
2023-01-17T17:09:49.619Z,2.70
2023-01-17T17:12:16.326Z,3.50
2023-01-17T17:14:43.074Z,1.20
2023-01-17T17:17:10.059Z,2.60
2023-01-17T17:19:36.800Z,1.30
2023-01-17T17:22:06.911Z,2.30
2023-01-17T17:24:34.164Z,3.60
2023-01-17T17:27:00.835Z,5.40
2023-01-17T17:29:27.467Z,2.30
2023-01-17T17:31:54.156Z,11.30
2023-01-17T17:34:22.945Z,14.70
2023-01-17T17:36:49.555Z,19.20
2023-01-17T17:39:16.351Z,21.40
2023-01-17T17:41:45.427Z,8.60
2023-01-17T17:44:12.276Z,65.00
2023-01-17T17:46:39.605Z,16.60
2023-01-17T17:49:07.287Z,17.20
2023-01-17T17:51:35.423Z,15.80
2023-01-17T17:54:03.447Z,10.20
2023-01-17T17:56:31.162Z,8.90
2023-01-17T17:58:59.590Z,6.90
2023-01-17T18:01:28.120Z,10.20
2023-01-17T18:03:57.987Z,9.40
2023-01-17T18:06:24.875Z,10.20
2023-01-17T18:08:52.388Z,16.30
2023-01-17T18:11:21.321Z,14.40
2023-01-17T18:13:53.087Z,11.00
2023-01-17T18:16:21.530Z,10.10
2023-01-17T18:18:50.554Z,9.20
2023-01-17T18:21:25.643Z,6.80
2023-01-17T18:23:55.695Z,6.30
2023-01-17T18:26:25.288Z,7.30
2023-01-17T18:28:53.425Z,7.30
2023-01-17T18:31:20.964Z,7.10
2023-01-17T18:33:50.444Z,8.90
2023-01-17T18:36:17.679Z,7.40
2023-01-17T18:38:46.720Z,9.80
2023-01-17T18:41:18.487Z,10.40
2023-01-17T18:43:45.981Z,11.00
2023-01-17T18:46:13.876Z,8.30
2023-01-17T18:48:42.615Z,10.20
2023-01-17T18:51:10.994Z,8.40
2023-01-17T18:53:39.183Z,12.90
2023-01-17T18:56:08.056Z,9.40
2023-01-17T18:58:36.742Z,7.70
2023-01-17T19:01:07.168Z,10.50
2023-01-17T19:03:35.267Z,11.30
2023-01-17T19:06:03.199Z,8.70
2023-01-17T19:08:33.784Z,8.50
2023-01-17T19:11:01.552Z,10.70
2023-01-17T19:13:28.660Z,10.70
2023-01-17T19:15:59.193Z,8.90
2023-01-17T19:18:26.269Z,9.60
2023-01-17T19:20:53.437Z,13.70
2023-01-17T19:23:22.720Z,9.90
2023-01-17T19:25:56.141Z,9.30
2023-01-17T19:28:23.257Z,10.60
2023-01-17T19:30:54.096Z,9.20
